Time;durP1;ratioP1;P1;durP2;ratioP2;P2;SDS_P1;SDS_P2;PMS_P1;PMS_P2;Temp;Humidity;BMP_temperature;BMP_pressure;BME280_temperature;BME280_humidity;BME280_pressure;Samples;Min_cycle;Max_cycle;Signal;HPM_P1;HPM_P2
2023/10/13 00:00:36;;;;;;;;;11.00;11.00;;;;;16.81;100.00;101031.25;4972014;28;8826;-68
2023/10/13 00:03:03;;;;;;;;;10.00;9.00;;;;;16.85;100.00;101034.34;4974905;28;8850;-68
2023/10/13 00:05:31;;;;;;;;;16.00;15.33;;;;;16.83;100.00;101036.47;4971506;28;8850;-68
2023/10/13 00:08:03;;;;;;;;;22.00;19.33;;;;;16.80;100.00;101033.16;4975872;28;9220;-68
2023/10/13 00:10:31;;;;;;;;;18.67;16.00;;;;;16.76;100.00;101033.84;4971335;28;10031;-68
2023/10/13 00:13:14;;;;;;;;;16.50;13.00;;;;;16.77;100.00;101021.91;4986066;28;9035;-68
2023/10/13 00:16:00;;;;;;;;;21.50;17.00;;;;;16.78;100.00;101034.47;4968389;28;8826;-68
2023/10/13 00:18:33;;;;;;;;;17.33;16.00;;;;;16.77;100.00;101030.06;4966954;28;8854;-68
2023/10/13 00:21:03;;;;;;;;;20.00;19.00;;;;;16.73;100.00;101023.44;4969660;28;9116;-69
2023/10/13 00:23:32;;;;;;;;;21.33;18.00;;;;;16.75;100.00;101016.72;4968770;28;9236;-69
2023/10/13 00:26:02;;;;;;;;;27.50;23.50;;;;;16.76;100.00;101014.81;4970796;28;9218;-69
2023/10/13 00:28:46;;;;;;;;;33.00;26.25;;;;;16.76;100.00;101017.53;4969026;28;9454;-69
2023/10/13 00:31:14;;;;;;;;;30.00;28.75;;;;;16.77;100.00;101009.16;4968621;28;9428;-68
2023/10/13 00:33:41;;;;;;;;;27.00;25.00;;;;;16.79;100.00;101004.31;4973179;28;9493;-69
2023/10/13 00:36:17;;;;;;;;;28.00;25.67;;;;;16.80;100.00;100996.97;4970525;28;10102;-68
2023/10/13 00:38:48;;;;;;;;;29.25;26.25;;;;;16.83;100.00;100995.69;4969693;28;9670;-68
2023/10/13 00:41:16;;;;;;;;;27.75;25.25;;;;;16.82;100.00;100996.78;4969678;28;9587;-68
2023/10/13 00:44:07;;;;;;;;;31.67;27.00;;;;;16.85;100.00;100999.00;4969603;28;10257;-68
2023/10/13 00:46:37;;;;;;;;;23.75;22.75;;;;;16.83;100.00;101001.97;4968280;28;9593;-69
2023/10/13 00:49:05;;;;;;;;;19.00;19.00;;;;;16.83;100.00;100984.81;4968199;28;10240;-69
2023/10/13 00:51:34;;;;;;;;;22.00;19.33;;;;;16.82;100.00;100984.00;4968148;28;9163;-68
2023/10/13 00:54:07;;;;;;;;;15.00;14.00;;;;;16.79;100.00;100985.28;4969328;28;9893;-68
2023/10/13 00:56:40;;;;;;;;;17.67;17.00;;;;;16.77;100.00;100992.84;4969089;28;9075;-68
2023/10/13 00:59:09;;;;;;;;;14.00;13.00;;;;;16.79;100.00;100979.03;4968851;28;9069;-68
2023/10/13 01:01:36;;;;;;;;;18.00;17.67;;;;;16.74;100.00;100971.56;4967022;28;9117;-68
2023/10/13 01:04:08;;;;;;;;;18.00;16.00;;;;;16.74;100.00;100968.03;4970977;28;9153;-69
2023/10/13 01:06:37;;;;;;;;;13.67;13.33;;;;;16.73;100.00;100966.34;4972538;28;9190;-69
2023/10/13 01:09:18;;;;;;;;;14.25;13.50;;;;;16.71;100.00;100961.13;4969073;28;9725;-69
2023/10/13 01:11:48;;;;;;;;;10.33;8.67;;;;;16.73;100.00;100953.59;4970659;28;9565;-69
2023/10/13 01:14:17;;;;;;;;;13.00;10.33;;;;;16.74;100.00;100955.25;4963189;28;8936;-68
2023/10/13 01:16:45;;;;;;;;;12.25;11.75;;;;;16.75;100.00;100945.22;4974599;28;9072;-68
2023/10/13 01:19:24;;;;;;;;;11.25;11.25;;;;;16.77;100.00;100949.34;4970187;28;8831;-68
2023/10/13 01:22:01;;;;;;;;;12.50;12.50;;;;;16.78;100.00;100952.91;4969564;28;8905;-68
2023/10/13 01:24:31;;;;;;;;;22.00;21.00;;;;;16.72;100.00;100942.91;4963213;28;8830;-68
2023/10/13 01:27:07;;;;;;;;;20.33;15.33;;;;;16.69;100.00;100938.78;4968629;28;9094;-69
2023/10/13 01:29:34;;;;;;;;;21.00;19.00;;;;;16.64;100.00;100938.63;4974712;28;8917;-68
2023/10/13 01:32:00;;;;;;;;;16.00;15.00;;;;;16.69;100.00;100929.78;4969473;28;9086;-69
2023/10/13 01:34:27;;;;;;;;;14.00;13.33;;;;;16.68;100.00;100928.94;4981968;28;8893;-68
2023/10/13 01:36:55;;;;;;;;;15.00;11.00;;;;;16.73;100.00;100923.69;4949455;28;9027;-69
2023/10/13 01:39:26;;;;;;;;;14.50;12.25;;;;;16.73;100.00;100917.41;4949761;28;8833;-68
2023/10/13 01:41:56;;;;;;;;;15.00;11.00;;;;;16.76;100.00;100919.66;4949760;29;8861;-68
2023/10/13 01:44:30;;;;;;;;;10.67;10.67;;;;;16.77;100.00;100914.03;4970312;28;9794;-68
2023/10/13 01:47:06;;;;;;;;;10.50;9.00;;;;;16.79;100.00;100919.22;4968129;28;8946;-69
2023/10/13 01:49:41;;;;;;;;;21.33;19.67;;;;;16.69;100.00;100911.59;4980318;28;8929;-69
2023/10/13 01:52:15;;;;;;;;;16.33;15.33;;;;;16.72;100.00;100907.56;4967161;28;9256;-68
2023/10/13 01:54:51;;;;;;;;;20.00;18.33;;;;;16.73;100.00;100907.41;4970063;28;9087;-69
2023/10/13 01:57:17;;;;;;;;;25.00;24.33;;;;;16.68;100.00;100901.78;4968390;28;9201;-68
2023/10/13 01:59:47;;;;;;;;;29.00;26.00;;;;;16.66;100.00;100901.19;4952863;28;9332;-68
2023/10/13 02:02:15;;;;;;;;;20.67;20.00;;;;;16.67;100.00;100902.84;4965865;28;9472;-69
2023/10/13 02:04:48;;;;;;;;;21.67;21.00;;;;;16.71;100.00;100898.59;4968587;28;9395;-69
2023/10/13 02:07:16;;;;;;;;;19.33;19.00;;;;;16.71;100.00;100898.59;4965473;28;8922;-68
2023/10/13 02:09:43;;;;;;;;;17.67;16.00;;;;;16.74;100.00;100886.47;4983158;28;9336;-69
2023/10/13 02:12:10;;;;;;;;;17.00;15.67;;;;;16.73;100.00;100884.78;4972241;28;9019;-69
2023/10/13 02:14:38;;;;;;;;;20.67;18.67;;;;;16.75;100.00;100882.69;4988407;28;8953;-69
2023/10/13 02:17:16;;;;;;;;;26.33;21.67;;;;;16.74;100.00;100870.97;4970756;28;9163;-68
2023/10/13 02:19:46;;;;;;;;;18.67;18.33;;;;;16.75;100.00;100869.91;4972574;28;9344;-68
2023/10/13 02:22:31;;;;;;;;;26.67;23.00;;;;;16.73;100.00;100877.50;4970519;28;9326;-68
2023/10/13 02:25:01;;;;;;;;;20.00;17.67;;;;;16.73;100.00;100866.63;4973181;28;9243;-68
2023/10/13 02:27:28;;;;;;;;;21.33;19.33;;;;;16.75;100.00;100864.47;4972061;28;9197;-68
2023/10/13 02:30:01;;;;;;;;;24.33;22.00;;;;;16.72;100.00;100861.38;4971350;28;9100;-68
2023/10/13 02:32:30;;;;;;;;;23.67;20.67;;;;;16.75;100.00;100847.34;4983593;28;9314;-68
2023/10/13 02:35:05;;;;;;;;;16.00;13.75;;;;;16.77;100.00;100843.34;4977761;28;9292;-68
2023/10/13 02:37:32;;;;;;;;;19.00;18.00;;;;;16.77;100.00;100840.63;4972802;28;8837;-68
2023/10/13 02:40:00;;;;;;;;;18.67;17.67;;;;;16.75;100.00;100836.47;4973236;28;9066;-68
2023/10/13 02:42:26;;;;;;;;;21.33;19.33;;;;;16.73;100.00;100833.13;4973206;28;9068;-68
2023/10/13 02:44:55;;;;;;;;;17.33;16.33;;;;;16.74;100.00;100826.66;4968797;28;10102;-69
2023/10/13 02:47:24;;;;;;;;;25.33;22.00;;;;;16.73;100.00;100814.97;4969994;28;9019;-68
2023/10/13 02:49:50;;;;;;;;;20.33;19.67;;;;;16.76;100.00;100810.94;4972960;28;9169;-69
2023/10/13 02:52:20;;;;;;;;;15.00;12.67;;;;;16.79;100.00;100805.03;4970488;28;9138;-68
2023/10/13 02:54:47;;;;;;;;;13.00;13.00;;;;;16.80;100.00;100804.78;4971446;28;9729;-68
2023/10/13 02:57:15;;;;;;;;;13.67;13.67;;;;;16.80;100.00;100799.34;4971069;28;9149;-68
2023/10/13 02:59:56;;;;;;;;;12.33;12.33;;;;;16.82;100.00;100798.31;4971365;28;8925;-69
2023/10/13 03:02:27;;;;;;;;;17.67;15.33;;;;;16.77;100.00;100788.97;4971382;28;9010;-69
2023/10/13 03:05:08;;;;;;;;;13.00;12.00;;;;;16.75;100.00;100771.22;4970376;28;9074;-68
2023/10/13 03:07:36;;;;;;;;;11.00;10.00;;;;;16.75;100.00;100777.50;4976505;28;8922;-68
2023/10/13 03:10:09;;;;;;;;;11.00;10.00;;;;;16.76;100.00;100775.59;4972318;28;9040;-68
2023/10/13 03:12:37;;;;;;;;;16.00;11.00;;;;;16.79;100.00;100756.09;4971326;28;9790;-69
2023/10/13 03:15:23;;;;;;;;;11.00;8.50;;;;;16.80;100.00;100752.31;4970362;28;8947;-70
2023/10/13 03:17:49;;;;;;;;;15.00;12.33;;;;;16.77;100.00;100747.34;4984386;28;8849;-68
2023/10/13 03:20:24;;;;;;;;;14.33;14.33;;;;;16.76;100.00;100729.38;4967694;28;9072;-69
2023/10/13 03:22:53;;;;;;;;;12.33;11.33;;;;;16.77;100.00;100728.31;4969342;28;9001;-69
2023/10/13 03:25:29;;;;;;;;;10.00;10.00;;;;;16.77;100.00;100720.16;4954563;28;8949;-69
2023/10/13 03:30:35;;;;;;;;;9.00;9.00;;;;;16.77;100.00;100718.28;4977836;28;8951;-71
2023/10/13 03:33:07;;;;;;;;;11.75;10.25;;;;;16.74;100.00;100715.22;4972405;28;8830;-69
2023/10/13 03:35:38;;;;;;;;;15.00;13.67;;;;;16.72;100.00;100712.69;4978320;28;8941;-69
2023/10/13 03:38:17;;;;;;;;;9.67;9.00;;;;;16.72;100.00;100693.66;4971890;28;9082;-69
2023/10/13 03:40:48;;;;;;;;;9.75;8.25;;;;;16.70;100.00;100695.81;4970827;28;8961;-69
2023/10/13 03:43:21;;;;;;;;;10.00;9.00;;;;;16.68;100.00;100683.50;4971087;28;8968;-69
2023/10/13 03:46:00;;;;;;;;;16.67;11.00;;;;;16.67;100.00;100668.28;4970694;28;9138;-69
2023/10/13 03:51:03;;;;;;;;;13.25;10.50;;;;;16.63;100.00;100657.03;4971945;28;9102;-69
2023/10/13 03:53:33;;;;;;;;;8.25;8.00;;;;;16.61;100.00;100645.59;4969272;28;8842;-69
2023/10/13 03:56:25;;;;;;;;;7.75;7.50;;;;;16.61;100.00;100633.88;4970886;28;8872;-69
2023/10/13 03:59:00;;;;;;;;;10.00;8.67;;;;;16.60;100.00;100629.53;4974067;28;8897;-71
2023/10/13 04:04:15;;;;;;;;;10.00;8.75;;;;;16.60;100.00;100624.91;4964725;28;9571;-69
2023/10/13 04:17:26;;;;;;;;;7.00;7.00;;;;;16.56;100.00;100612.88;4979226;28;8853;-69
2023/10/13 04:25:35;;;;;;;;;4.25;4.25;;;;;16.56;100.00;100607.44;4968845;28;8964;-69
2023/10/13 04:28:33;;;;;;;;;8.33;8.33;;;;;16.48;100.00;100594.22;4984248;28;9618;-69
2023/10/13 04:36:16;;;;;;;;;6.00;6.00;;;;;16.38;100.00;100559.50;4969619;28;8838;-69
2023/10/13 04:38:56;;;;;;;;;8.75;7.50;;;;;16.36;100.00;100550.78;4967603;28;8912;-69
2023/10/13 04:41:38;;;;;;;;;8.75;6.00;;;;;16.35;100.00;100549.13;4968312;28;8827;-68
2023/10/13 04:49:29;;;;;;;;;7.75;7.50;;;;;16.37;100.00;100540.75;4970093;28;8830;-69
2023/10/13 04:52:01;;;;;;;;;8.33;8.33;;;;;16.34;100.00;100538.50;4969682;28;8932;-69
2023/10/13 06:30:04;;;;;;;;;5.50;5.50;;;;;16.63;100.00;100441.53;4962904;28;8919;-71
2023/10/13 06:32:33;;;;;;;;;8.67;7.33;;;;;16.60;100.00;100433.88;4964975;28;8937;-71
2023/10/13 06:35:07;;;;;;;;;6.75;6.75;;;;;16.62;100.00;100440.72;4968450;28;8958;-71
2023/10/13 06:37:34;;;;;;;;;9.00;6.00;;;;;16.63;100.00;100433.38;4966629;28;8891;-70
2023/10/13 06:40:06;;;;;;;;;7.50;6.00;;;;;16.64;100.00;100426.88;4973997;28;8932;-70
2023/10/13 06:42:42;;;;;;;;;7.25;7.00;;;;;16.61;100.00;100433.63;4976406;28;9534;-70
2023/10/13 06:45:09;;;;;;;;;4.67;4.67;;;;;16.63;100.00;100427.94;4971921;28;8830;-70
2023/10/13 06:47:45;;;;;;;;;9.75;7.50;;;;;16.63;100.00;100417.91;4971396;28;9627;-70
2023/10/13 06:50:19;;;;;;;;;12.50;9.00;;;;;16.57;100.00;100421.59;4970045;28;8849;-71
2023/10/13 06:52:49;;;;;;;;;8.00;8.00;;;;;16.58;100.00;100420.53;4969955;28;9689;-71
2023/10/13 06:55:27;;;;;;;;;7.00;6.00;;;;;16.59;100.00;100418.63;4974625;28;8834;-71
2023/10/13 06:58:02;;;;;;;;;8.00;8.00;;;;;16.56;100.00;100406.34;4972019;28;8853;-71
2023/10/13 07:00:29;;;;;;;;;7.00;7.00;;;;;16.59;100.00;100403.16;4970618;28;8846;-70
2023/10/13 07:03:05;;;;;;;;;6.75;6.75;;;;;16.60;100.00;100398.53;4972755;28;8826;-71
2023/10/13 07:05:41;;;;;;;;;8.00;5.50;;;;;16.61;100.00;100395.59;4985552;28;8845;-70
2023/10/13 07:08:08;;;;;;;;;7.33;7.33;;;;;16.61;100.00;100390.16;4963433;28;8835;-71
2023/10/13 07:10:48;;;;;;;;;8.75;8.00;;;;;16.64;100.00;100395.06;4972573;28;9746;-71
2023/10/13 07:13:16;;;;;;;;;7.50;6.75;;;;;16.65;100.00;100385.88;4970695;28;8826;-70
2023/10/13 07:15:46;;;;;;;;;6.25;5.50;;;;;16.71;100.00;100390.31;4970357;28;9625;-71
2023/10/13 07:18:18;;;;;;;;;9.33;7.33;;;;;16.75;100.00;100385.25;4969303;28;8862;-70
2023/10/13 07:20:45;;;;;;;;;8.50;6.00;;;;;16.80;100.00;100378.00;4972411;28;8929;-70
2023/10/13 07:23:19;;;;;;;;;10.67;9.00;;;;;16.82;100.00;100357.91;4962065;28;8845;-70
2023/10/13 07:26:02;;;;;;;;;11.50;8.75;;;;;16.86;100.00;100375.38;4977303;28;9053;-70
2023/10/13 07:28:43;;;;;;;;;10.50;10.50;;;;;16.88;100.00;100378.66;4967761;28;8853;-70
2023/10/13 07:31:18;;;;;;;;;9.33;9.33;;;;;16.91;100.00;100359.13;4965494;28;8838;-71
2023/10/13 07:33:45;;;;;;;;;9.00;8.50;;;;;16.93;100.00;100359.69;4969513;28;9715;-69
2023/10/13 07:36:18;;;;;;;;;13.00;11.67;;;;;17.00;100.00;100365.81;4973644;28;8822;-69
2023/10/13 07:38:48;;;;;;;;;10.00;10.00;;;;;16.99;100.00;100356.00;4970033;28;8941;-70
2023/10/13 07:41:32;;;;;;;;;18.33;15.00;;;;;17.00;100.00;100353.03;4973999;28;8920;-71
2023/10/13 07:43:59;;;;;;;;;13.00;13.00;;;;;17.01;100.00;100357.41;4978387;28;8893;-71
2023/10/13 07:46:31;;;;;;;;;9.25;9.25;;;;;17.04;100.00;100356.06;4970578;28;8850;-71
2023/10/13 07:49:08;;;;;;;;;18.00;14.67;;;;;17.04;100.00;100343.28;4962160;28;8900;-70
2023/10/13 07:51:44;;;;;;;;;15.00;14.50;;;;;17.04;100.00;100348.75;4970664;28;9815;-70
2023/10/13 07:54:21;;;;;;;;;15.67;15.67;;;;;17.07;100.00;100339.28;4954395;28;8850;-69
2023/10/13 07:56:48;;;;;;;;;19.67;18.67;;;;;17.11;100.00;100339.59;4970097;28;9084;-70
2023/10/13 07:59:14;;;;;;;;;19.33;15.00;;;;;17.17;100.00;100333.97;4971388;28;9091;-69
2023/10/13 08:01:42;;;;;;;;;20.00;18.33;;;;;17.19;100.00;100328.28;4967622;28;9075;-69
2023/10/13 08:04:14;;;;;;;;;17.00;14.50;;;;;17.23;100.00;100337.59;4968434;28;9086;-69
2023/10/13 08:06:42;;;;;;;;;16.67;16.67;;;;;17.21;100.00;100332.38;4971294;28;8818;-72
2023/10/13 08:09:30;;;;;;;;;17.67;14.67;;;;;17.23;100.00;100330.25;4971489;28;8927;-69
2023/10/13 08:11:56;;;;;;;;;16.00;14.33;;;;;17.27;100.00;100309.63;4971529;28;8934;-69
2023/10/13 08:14:33;;;;;;;;;14.00;12.25;;;;;17.30;100.00;100311.88;4971256;28;9042;-72
2023/10/13 08:17:10;;;;;;;;;12.25;11.50;;;;;17.32;100.00;100321.66;4970045;28;8858;-69
2023/10/13 08:19:41;;;;;;;;;12.25;12.25;;;;;17.30;100.00;100297.44;4971166;28;8968;-69
2023/10/13 08:37:59;;;;;;;;;12.75;12.75;;;;;17.28;100.00;100281.34;4970824;28;8880;-70
2023/10/13 08:40:43;;;;;;;;;16.25;12.50;;;;;17.28;100.00;100278.63;4985785;28;8846;-71
2023/10/13 08:43:11;;;;;;;;;10.00;10.00;;;;;17.27;100.00;100276.19;4969710;28;8846;-69
2023/10/13 08:48:12;;;;;;;;;11.75;8.75;;;;;17.30;100.00;100281.13;4970620;28;8972;-69
2023/10/13 08:53:32;;;;;;;;;11.50;8.50;;;;;17.32;100.00;100269.97;4970972;28;8844;-71
2023/10/13 09:01:48;;;;;;;;;11.00;9.00;;;;;17.42;100.00;100268.22;4969519;28;8854;-69
2023/10/13 09:07:37;;;;;;;;;8.25;8.25;;;;;17.40;100.00;100256.75;4970461;28;9568;-70
2023/10/13 09:23:28;;;;;;;;;9.25;8.25;;;;;17.44;100.00;100232.56;4974472;28;8876;-69
2023/10/13 09:26:09;;;;;;;;;12.00;8.50;;;;;17.51;100.00;100235.94;4973404;28;8874;-69
2023/10/13 09:28:37;;;;;;;;;12.75;9.00;;;;;17.53;100.00;100218.25;4974451;28;8869;-69
2023/10/13 09:31:09;;;;;;;;;10.00;8.00;;;;;17.61;100.00;100227.88;4973366;28;8841;-69
2023/10/13 09:33:36;;;;;;;;;14.50;10.75;;;;;17.65;100.00;100230.91;4986778;28;8854;-68
2023/10/13 09:36:04;;;;;;;;;14.00;11.25;;;;;17.63;100.00;100216.75;4984047;28;8858;-68
2023/10/13 09:38:40;;;;;;;;;13.00;10.00;;;;;17.67;100.00;100218.69;4970910;28;8849;-69
2023/10/13 09:41:25;;;;;;;;;9.75;7.50;;;;;17.73;100.00;100211.38;4965543;28;8928;-69
2023/10/13 09:43:57;;;;;;;;;8.00;8.00;;;;;17.71;100.00;100208.94;4970667;28;8854;-69
2023/10/13 09:46:28;;;;;;;;;9.50;8.50;;;;;17.74;99.90;100200.28;4972110;28;8861;-69
2023/10/13 09:49:06;;;;;;;;;10.00;9.25;;;;;17.68;99.75;100204.00;4976059;28;8852;-69
2023/10/13 09:51:33;;;;;;;;;10.75;9.25;;;;;17.71;99.12;100206.22;4972486;28;8845;-69
2023/10/13 09:54:26;;;;;;;;;8.25;8.25;;;;;17.81;98.44;100183.72;4972536;28;8840;-69
2023/10/13 09:57:12;;;;;;;;;11.25;8.50;;;;;17.82;97.99;100169.03;4971518;28;8930;-69
2023/10/13 09:59:52;;;;;;;;;7.00;5.00;;;;;17.88;97.94;100181.63;4972454;28;8854;-69
2023/10/13 10:02:25;;;;;;;;;12.50;8.50;;;;;17.87;97.49;100171.81;4972972;28;8968;-69
2023/10/13 10:05:11;;;;;;;;;8.00;6.75;;;;;17.97;96.95;100190.13;4972407;28;8841;-69
2023/10/13 10:07:39;;;;;;;;;9.75;9.75;;;;;17.89;96.97;100188.69;4973316;28;8825;-69
2023/10/13 10:10:08;;;;;;;;;12.75;9.25;;;;;17.93;96.74;100184.38;4972608;28;8842;-69
2023/10/13 10:12:47;;;;;;;;;10.50;9.25;;;;;17.96;96.49;100183.06;4972110;28;8850;-69
2023/10/13 10:15:34;;;;;;;;;10.25;9.75;;;;;17.91;96.74;100178.38;4973613;28;8841;-69
2023/10/13 10:18:03;;;;;;;;;9.25;9.00;;;;;18.08;95.96;100183.69;4973176;28;8826;-69
2023/10/13 10:20:45;;;;;;;;;9.50;9.50;;;;;18.09;95.78;100174.44;4972001;28;8932;-69
2023/10/13 10:23:24;;;;;;;;;13.00;9.50;;;;;18.05;95.92;100178.75;4972524;28;9493;-69
2023/10/13 10:25:51;;;;;;;;;14.25;10.75;;;;;18.15;95.01;100167.97;4985983;28;8841;-69
2023/10/13 10:28:19;;;;;;;;;11.00;9.75;;;;;18.26;94.48;100160.66;4971566;28;8984;-69
2023/10/13 10:30:46;;;;;;;;;10.00;10.00;;;;;18.32;93.86;100161.53;4986579;28;8878;-69
2023/10/13 10:33:15;;;;;;;;;14.00;10.00;;;;;18.40;93.67;100161.06;4972745;28;8853;-70
2023/10/13 10:35:43;;;;;;;;;9.50;9.25;;;;;18.43;93.31;100150.44;4972192;28;8854;-69
2023/10/13 10:38:24;;;;;;;;;10.50;10.50;;;;;18.52;92.99;100161.69;4960273;28;8873;-70
2023/10/13 10:40:58;;;;;;;;;10.25;9.00;;;;;18.59;92.77;100153.25;4972233;28;8830;-69
2023/10/13 10:43:41;;;;;;;;;8.50;8.00;;;;;18.66;92.58;100157.38;4982138;28;8849;-69
2023/10/13 10:46:10;;;;;;;;;11.25;9.50;;;;;18.63;92.74;100152.44;4978724;28;9564;-69
2023/10/13 10:48:42;;;;;;;;;9.75;9.50;;;;;18.71;92.45;100146.53;4969276;28;8833;-71
2023/10/13 10:51:22;;;;;;;;;11.75;9.25;;;;;18.65;91.99;100147.56;4970510;28;8854;-71
2023/10/13 10:53:53;;;;;;;;;9.50;8.00;;;;;18.66;92.09;100140.22;4971280;28;8838;-71
2023/10/13 10:56:25;;;;;;;;;11.25;9.75;;;;;18.72;91.58;100120.09;4972473;28;8826;-71
2023/10/13 10:58:57;;;;;;;;;11.75;11.50;;;;;18.78;91.31;100129.94;4976323;28;8835;-71
2023/10/13 11:01:38;;;;;;;;;7.50;7.50;;;;;18.80;91.12;100116.03;4970102;28;8852;-71
2023/10/13 11:06:57;;;;;;;;;11.25;9.25;;;;;18.68;90.86;100147.03;4971349;28;8900;-71
2023/10/13 11:09:31;;;;;;;;;8.75;8.75;;;;;18.75;90.69;100144.09;4971806;28;8876;-71
2023/10/13 11:12:15;;;;;;;;;11.75;9.75;;;;;18.61;90.82;100118.38;4970604;28;8875;-71
2023/10/13 11:14:47;;;;;;;;;14.50;14.00;;;;;18.64;90.58;100107.78;4972493;28;8952;-71
2023/10/13 11:17:33;;;;;;;;;12.25;12.25;;;;;18.67;90.74;100106.41;4970092;28;9214;-71
2023/10/13 11:20:18;;;;;;;;;10.75;10.25;;;;;18.51;89.73;100102.78;4970431;28;8834;-71
2023/10/13 11:22:48;;;;;;;;;9.75;9.75;;;;;18.57;89.63;100096.28;4970947;28;8858;-71
2023/10/13 11:25:29;;;;;;;;;14.00;12.75;;;;;18.53;89.31;100085.09;4971861;28;8852;-71
2023/10/13 11:28:06;;;;;;;;;10.50;9.75;;;;;18.62;88.72;100088.13;4968676;28;8867;-71
2023/10/13 11:33:07;;;;;;;;;11.25;11.25;;;;;18.60;88.11;100092.22;4972365;28;8854;-71
2023/10/13 11:38:26;;;;;;;;;13.25;12.25;;;;;18.66;87.76;100110.22;4969957;28;8853;-71
2023/10/13 11:44:23;;;;;;;;;12.00;10.00;;;;;18.72;88.25;100103.75;4966583;28;9529;-72
2023/10/13 11:51:44;;;;;;;;;13.00;13.00;;;;;18.51;88.04;100103.63;4983092;28;8856;-72
2023/10/13 11:54:13;;;;;;;;;11.75;11.75;;;;;18.54;86.96;100091.34;4961538;28;8868;-71
2023/10/13 11:56:39;;;;;;;;;12.75;12.75;;;;;18.62;86.52;100098.22;4969786;28;8822;-72
2023/10/13 11:59:06;;;;;;;;;13.00;11.75;;;;;18.74;86.11;100086.03;4970357;28;8936;-72
2023/10/13 12:04:32;;;;;;;;;17.50;14.00;;;;;18.72;85.86;100087.38;4968289;28;8849;-71
2023/10/13 12:12:23;;;;;;;;;14.50;13.75;;;;;18.65;83.27;100101.22;4978092;28;8845;-72
2023/10/13 12:14:56;;;;;;;;;15.50;12.00;;;;;18.70;83.53;100095.81;4973943;28;8830;-72
2023/10/13 12:17:31;;;;;;;;;14.75;12.00;;;;;18.77;83.19;100101.03;4971761;28;8868;-71
2023/10/13 12:19:59;;;;;;;;;18.75;16.00;;;;;18.90;83.08;100086.09;4966130;28;8842;-72
2023/10/13 12:22:28;;;;;;;;;12.75;12.50;;;;;18.90;83.64;100080.63;4967404;28;8830;-72
2023/10/13 12:24:56;;;;;;;;;13.50;13.00;;;;;18.91;83.83;100074.06;4968224;28;8851;-72
2023/10/13 12:27:23;;;;;;;;;18.25;13.75;;;;;18.91;84.36;100080.34;4984313;28;8850;-72
2023/10/13 12:29:51;;;;;;;;;12.75;11.25;;;;;18.81;84.15;100077.59;4970374;28;9667;-73
2023/10/13 12:32:30;;;;;;;;;15.00;14.00;;;;;18.82;84.47;100078.41;4965432;28;8924;-71
2023/10/13 12:34:59;;;;;;;;;14.50;12.50;;;;;18.81;84.69;100076.78;4964507;28;8848;-72
2023/10/13 12:51:20;;;;;;;;;14.25;12.75;;;;;18.84;85.17;100062.59;4975114;28;8834;-72
2023/10/13 12:53:48;;;;;;;;;8.75;7.25;;;;;18.78;85.38;100054.41;4958227;28;8826;-71
2023/10/13 12:56:15;;;;;;;;;10.75;10.00;;;;;18.83;85.33;100066.41;4969143;28;8920;-72
2023/10/13 12:58:51;;;;;;;;;12.00;11.25;;;;;18.86;85.47;100066.72;4985459;28;8846;-73
2023/10/13 13:01:20;;;;;;;;;10.50;10.50;;;;;18.83;85.65;100072.69;4953009;28;8842;-72
2023/10/13 13:03:49;;;;;;;;;13.25;11.50;;;;;18.82;86.02;100086.59;4970559;28;8842;-71
2023/10/13 13:06:26;;;;;;;;;15.00;13.25;;;;;18.61;86.10;100070.13;4969060;28;8953;-72
2023/10/13 13:08:53;;;;;;;;;12.75;12.75;;;;;18.71;85.75;100055.75;4962004;28;8863;-72
2023/10/13 13:11:20;;;;;;;;;14.75;13.75;;;;;18.69;86.58;100047.81;4969486;28;8834;-72
2023/10/13 13:13:49;;;;;;;;;11.25;11.25;;;;;18.64;87.34;100042.34;4970198;28;8855;-71
2023/10/13 13:16:24;;;;;;;;;9.75;9.75;;;;;18.74;87.23;100047.03;4968997;28;8830;-72
2023/10/13 13:18:51;;;;;;;;;13.50;10.25;;;;;18.81;87.15;100057.69;4968005;28;8864;-71
2023/10/13 13:21:22;;;;;;;;;12.00;12.00;;;;;18.77;87.34;100058.22;4967190;28;8936;-72
2023/10/13 13:23:50;;;;;;;;;14.00;11.50;;;;;18.69;87.92;100061.44;4968474;28;8968;-71
2023/10/13 13:26:17;;;;;;;;;15.75;14.50;;;;;18.67;88.43;100063.59;4968261;28;8830;-72
2023/10/13 13:28:45;;;;;;;;;17.00;15.67;;;;;18.69;88.66;100063.34;4969749;28;8957;-71
2023/10/13 13:31:15;;;;;;;;;12.00;11.25;;;;;18.65;89.05;100062.25;4969977;28;8948;-71
2023/10/13 13:33:44;;;;;;;;;12.00;10.00;;;;;18.59;89.62;100063.28;4964913;28;8822;-71
2023/10/13 13:36:15;;;;;;;;;15.00;12.50;;;;;18.57;90.20;100058.13;4969807;28;9593;-72
2023/10/13 13:38:48;;;;;;;;;15.25;12.75;;;;;18.53;91.07;100051.56;4969417;28;8950;-75
2023/10/13 13:41:16;;;;;;;;;18.50;15.00;;;;;18.57;91.30;100039.03;4948778;28;8860;-71
2023/10/13 13:43:54;;;;;;;;;14.75;11.00;;;;;18.57;91.55;100044.50;4968484;28;9306;-69
2023/10/13 13:46:32;;;;;;;;;15.75;14.00;;;;;18.53;91.78;100040.66;4966002;28;8948;-72
2023/10/13 13:49:00;;;;;;;;;13.75;13.25;;;;;18.53;91.90;100025.13;4961508;28;8827;-71
2023/10/13 13:51:28;;;;;;;;;15.75;13.00;;;;;18.54;91.63;100034.94;4975029;28;8966;-71
2023/10/13 13:53:56;;;;;;;;;10.50;10.50;;;;;18.58;91.50;100040.66;4968412;28;8862;-71
2023/10/13 13:56:27;;;;;;;;;14.25;13.75;;;;;18.50;91.67;100052.09;4969723;28;8822;-70
2023/10/13 13:58:55;;;;;;;;;17.00;13.25;;;;;18.53;91.68;100046.13;4964307;28;8947;-70
2023/10/13 14:01:22;;;;;;;;;14.75;12.75;;;;;18.54;91.78;100043.09;4966431;28;8885;-71
2023/10/13 14:03:52;;;;;;;;;13.25;11.00;;;;;18.59;91.64;100047.75;4968512;28;9546;-70
2023/10/13 14:06:24;;;;;;;;;15.00;14.50;;;;;18.52;91.71;100058.09;4969573;28;8846;-71
2023/10/13 14:08:54;;;;;;;;;7.75;6.75;;;;;18.55;91.39;100043.91;4972074;28;8858;-70
2023/10/13 14:14:13;;;;;;;;;18.50;17.50;;;;;18.53;92.30;100070.63;4975211;28;8842;-71
2023/10/13 14:16:44;;;;;;;;;12.00;12.00;;;;;18.41;93.36;100068.13;4970852;28;9566;-71
2023/10/13 14:19:11;;;;;;;;;13.00;12.00;;;;;18.46;93.61;100072.78;4969308;28;8837;-70
2023/10/13 14:21:38;;;;;;;;;14.75;13.50;;;;;18.45;94.19;100085.59;4974713;28;8834;-70
2023/10/13 14:24:14;;;;;;;;;15.25;14.75;;;;;18.50;94.45;100090.25;4972074;28;8909;-70
2023/10/13 14:26:43;;;;;;;;;18.00;16.00;;;;;18.34;95.64;100085.78;4971523;28;8834;-70
2023/10/13 14:29:14;;;;;;;;;13.00;12.50;;;;;18.24;96.99;100102.91;4972611;28;8964;-71
2023/10/13 14:31:41;;;;;;;;;10.75;9.25;;;;;18.33;96.93;100114.13;4975350;28;9591;-70
2023/10/13 14:34:08;;;;;;;;;16.25;13.25;;;;;18.24;97.66;100108.38;4973853;28;8979;-69
2023/10/13 14:36:35;;;;;;;;;18.50;17.00;;;;;18.18;98.50;100109.41;4976955;28;8921;-71
2023/10/13 14:39:02;;;;;;;;;15.00;13.25;;;;;18.19;98.96;100098.25;4971278;28;8857;-70
2023/10/13 14:41:29;;;;;;;;;12.00;12.00;;;;;18.18;99.31;100085.69;4969696;28;8859;-70
2023/10/13 14:44:04;;;;;;;;;14.50;12.00;;;;;18.18;99.38;100080.25;4983153;28;8962;-70
2023/10/13 14:46:35;;;;;;;;;14.00;14.00;;;;;18.17;99.42;100094.97;4969388;28;8860;-70
2023/10/13 14:49:02;;;;;;;;;12.50;12.50;;;;;18.18;99.98;100093.06;4971380;28;8865;-69
2023/10/13 14:51:29;;;;;;;;;10.75;10.50;;;;;18.11;100.00;100097.91;4971439;28;8826;-69
2023/10/13 14:53:56;;;;;;;;;13.50;12.00;;;;;18.03;100.00;100102.78;4978019;28;9053;-69
2023/10/13 14:56:26;;;;;;;;;14.50;12.25;;;;;18.03;100.00;100099.25;4977968;28;8814;-69
2023/10/13 14:58:53;;;;;;;;;10.00;10.00;;;;;18.00;100.00;100080.69;4968698;28;8848;-69
2023/10/13 15:01:22;;;;;;;;;12.25;10.25;;;;;17.99;100.00;100093.50;4978217;28;8871;-69
2023/10/13 15:03:50;;;;;;;;;9.75;9.75;;;;;18.01;100.00;100093.22;4979668;28;8961;-69
2023/10/13 15:06:18;;;;;;;;;8.25;7.50;;;;;17.99;100.00;100089.97;4970932;28;8924;-70
2023/10/13 15:08:48;;;;;;;;;7.00;7.00;;;;;17.94;100.00;100089.91;4974005;28;8832;-70
2023/10/13 15:11:18;;;;;;;;;8.00;7.00;;;;;17.96;100.00;100072.22;4972234;28;8912;-70
2023/10/13 15:13:48;;;;;;;;;5.25;5.00;;;;;18.01;100.00;100058.63;4987131;28;8850;-69